Time;durP1;ratioP1;P1;durP2;ratioP2;P2;SDS_P1;SDS_P2;PMS_P1;PMS_P2;Temp;Humidity;BMP_temperature;BMP_pressure;BME280_temperature;BME280_humidity;BME280_pressure;Samples;Min_cycle;Max_cycle;Signal;HPM_P1;HPM_P2
2021/09/20 00:02:02;;;;;;;9.48;6.55;;;;;;;12.61;78.01;99652.28;5050120;28;20041;-68
2021/09/20 00:04:27;;;;;;;7.00;5.50;;;;;;;12.55;77.40;99645.56;5051079;28;20461;-68
2021/09/20 00:06:53;;;;;;;7.38;5.65;;;;;;;12.52;78.26;99658.09;5050040;28;20115;-69
2021/09/20 00:09:18;;;;;;;7.05;5.70;;;;;;;12.51;77.74;99654.63;5050675;28;20112;-69
2021/09/20 00:11:44;;;;;;;8.85;6.53;;;;;;;12.49;77.88;99658.31;5049557;28;20361;-69
2021/09/20 00:14:09;;;;;;;5.60;5.10;;;;;;;12.47;77.94;99653.09;5050407;28;20025;-69
2021/09/20 00:16:34;;;;;;;9.38;5.70;;;;;;;12.46;78.34;99662.81;5050715;28;20047;-68
2021/09/20 00:19:00;;;;;;;9.30;6.63;;;;;;;12.44;78.46;99658.56;5050593;28;20029;-69
2021/09/20 00:21:26;;;;;;;7.95;6.07;;;;;;;12.47;78.54;99658.38;5048310;28;20029;-69
2021/09/20 00:23:51;;;;;;;6.82;5.88;;;;;;;12.51;77.81;99657.25;5050410;28;20049;-68
2021/09/20 00:26:17;;;;;;;9.07;6.70;;;;;;;12.49;77.75;99653.84;5051277;28;20083;-69
2021/09/20 00:28:42;;;;;;;10.35;6.30;;;;;;;12.52;77.80;99658.94;5051153;28;20438;-68
2021/09/20 00:31:08;;;;;;;7.93;6.30;;;;;;;12.56;77.27;99659.63;5048934;28;20083;-68
2021/09/20 00:33:33;;;;;;;7.88;6.15;;;;;;;12.53;78.42;99651.88;5050268;28;20060;-68
2021/09/20 00:35:58;;;;;;;7.13;6.10;;;;;;;12.57;77.69;99656.03;5050511;28;20060;-68
2021/09/20 00:38:24;;;;;;;9.60;6.78;;;;;;;12.52;77.93;99658.94;5050099;28;20430;-68
2021/09/20 00:40:50;;;;;;;7.95;6.15;;;;;;;12.52;77.38;99655.47;5049368;28;20037;-68
2021/09/20 00:43:15;;;;;;;8.13;6.32;;;;;;;12.50;77.77;99647.63;5049332;28;20071;-68
2021/09/20 00:45:40;;;;;;;8.00;6.22;;;;;;;12.50;77.72;99649.41;5050283;28;20111;-69
2021/09/20 00:48:06;;;;;;;8.07;6.38;;;;;;;12.49;77.40;99650.38;5050573;28;20079;-69
2021/09/20 00:50:32;;;;;;;7.43;6.10;;;;;;;12.46;77.77;99654.88;5050633;28;20037;-68
2021/09/20 00:52:58;;;;;;;9.23;7.45;;;;;;;12.43;77.59;99656.88;5049408;28;20029;-69
2021/09/20 00:55:23;;;;;;;8.10;6.10;;;;;;;12.37;77.73;99646.66;5049665;28;20122;-69
2021/09/20 00:57:49;;;;;;;7.85;6.78;;;;;;;12.32;77.54;99651.34;5048608;28;20115;-68
2021/09/20 01:00:16;;;;;;;8.68;6.70;;;;;;;12.30;77.63;99647.94;5049616;28;20033;-69
2021/09/20 01:02:41;;;;;;;8.93;6.97;;;;;;;12.25;77.60;99657.00;5024668;28;20479;-69
2021/09/20 01:05:08;;;;;;;10.15;7.25;;;;;;;12.22;78.54;99662.47;5049385;28;20045;-69
2021/09/20 01:07:34;;;;;;;9.93;7.65;;;;;;;12.18;78.13;99657.44;5049256;28;20071;-69
2021/09/20 01:09:59;;;;;;;10.30;8.18;;;;;;;12.18;78.29;99658.31;5048425;28;20056;-69
2021/09/20 01:12:25;;;;;;;11.40;7.80;;;;;;;12.13;78.38;99657.69;5047790;28;20048;-69
2021/09/20 01:14:51;;;;;;;9.35;7.18;;;;;;;12.06;78.62;99664.31;5049930;28;20053;-69
2021/09/20 01:17:16;;;;;;;8.73;6.50;;;;;;;12.04;78.33;99658.25;5049815;28;20063;-69
2021/09/20 01:19:41;;;;;;;8.95;7.40;;;;;;;12.01;78.26;99664.56;5050044;28;20037;-69
2021/09/20 01:22:14;;;;;;;11.63;7.30;;;;;;;12.01;79.01;99659.28;5048952;28;20047;-69
2021/09/20 01:24:41;;;;;;;8.88;7.03;;;;;;;11.99;79.04;99662.94;5050437;28;20037;-69
2021/09/20 01:27:06;;;;;;;11.50;7.90;;;;;;;11.93;78.66;99661.47;5050762;28;20033;-69
2021/09/20 01:29:34;;;;;;;8.48;6.35;;;;;;;11.94;79.01;99657.06;5050322;28;20132;-69
2021/09/20 01:31:59;;;;;;;7.57;6.78;;;;;;;11.95;79.11;99656.97;5046909;28;20100;-69
2021/09/20 01:34:26;;;;;;;9.38;7.32;;;;;;;11.94;78.83;99659.72;5047666;28;20120;-68
2021/09/20 01:36:52;;;;;;;9.57;6.55;;;;;;;11.88;79.23;99662.69;5049484;28;20373;-68
2021/09/20 01:39:20;;;;;;;9.70;6.68;;;;;;;11.88;78.65;99657.41;5048793;28;20048;-68
2021/09/20 01:41:46;;;;;;;16.48;9.60;;;;;;;11.89;78.60;99661.75;5048895;28;20558;-68
2021/09/20 01:44:12;;;;;;;10.15;6.40;;;;;;;11.88;78.65;99660.91;5049397;28;20056;-68
2021/09/20 01:46:40;;;;;;;9.27;6.60;;;;;;;11.89;78.66;99656.47;5048531;28;20412;-68
2021/09/20 01:49:05;;;;;;;12.85;7.63;;;;;;;11.81;77.94;99665.66;5048845;28;20067;-68
2021/09/20 01:51:31;;;;;;;8.88;7.28;;;;;;;11.75;79.07;99666.00;5047520;28;20045;-68
2021/09/20 01:53:56;;;;;;;8.55;6.53;;;;;;;11.78;79.29;99673.72;5047485;28;20115;-68
2021/09/20 01:56:21;;;;;;;9.45;6.57;;;;;;;11.84;79.08;99669.91;5049182;28;20127;-68
2021/09/20 01:58:47;;;;;;;10.93;7.78;;;;;;;11.85;79.71;99668.97;5048637;28;20508;-68
2021/09/20 02:01:12;;;;;;;9.05;6.75;;;;;;;11.81;79.17;99676.22;5046325;28;20045;-69
2021/09/20 02:03:37;;;;;;;11.93;9.35;;;;;;;11.79;79.18;99671.97;5048590;28;20119;-68
2021/09/20 02:06:03;;;;;;;11.20;7.20;;;;;;;11.80;78.98;99671.88;5048341;28;20573;-68
2021/09/20 02:08:28;;;;;;;10.73;7.70;;;;;;;11.77;79.75;99679.97;5048102;28;20040;-67
2021/09/20 02:10:53;;;;;;;8.25;7.13;;;;;;;11.81;79.87;99675.34;5045560;28;20396;-69
2021/09/20 02:13:19;;;;;;;9.07;7.90;;;;;;;11.86;79.73;99672.47;5048902;28;20451;-69
2021/09/20 02:15:44;;;;;;;12.60;7.85;;;;;;;11.87;79.49;99679.50;5048583;28;20038;-69
2021/09/20 02:18:09;;;;;;;9.95;8.23;;;;;;;11.86;79.74;99670.66;5047060;28;20037;-69
2021/09/20 02:20:35;;;;;;;10.48;7.15;;;;;;;11.86;78.87;99672.47;5048446;28;20496;-69
2021/09/20 02:23:00;;;;;;;11.98;8.57;;;;;;;11.81;78.65;99676.22;5047718;28;20512;-69
2021/09/20 02:25:25;;;;;;;10.63;8.63;;;;;;;11.80;79.02;99677.16;5048548;28;20131;-70
2021/09/20 02:27:51;;;;;;;11.80;7.70;;;;;;;11.78;79.11;99686.94;5048711;28;20112;-68
2021/09/20 02:30:16;;;;;;;9.52;7.38;;;;;;;11.75;78.59;99683.63;5048578;28;20044;-68
2021/09/20 02:32:42;;;;;;;9.23;6.80;;;;;;;11.69;78.30;99676.91;5046163;28;20552;-68
2021/09/20 02:35:08;;;;;;;9.93;8.23;;;;;;;11.66;78.75;99676.22;5049139;28;20029;-68
2021/09/20 02:37:34;;;;;;;12.20;8.32;;;;;;;11.58;78.71;99689.84;5047732;28;20087;-71
2021/09/20 02:40:00;;;;;;;11.52;8.27;;;;;;;11.48;78.51;99688.66;5047970;28;20037;-68
2021/09/20 02:42:25;;;;;;;10.93;7.63;;;;;;;11.42;79.00;99688.97;5047401;28;20053;-70
2021/09/20 02:44:51;;;;;;;10.27;8.75;;;;;;;11.38;79.13;99686.50;5048588;28;20039;-69
2021/09/20 02:47:16;;;;;;;10.57;7.18;;;;;;;11.38;79.28;99688.28;5048203;28;20065;-68
2021/09/20 02:49:42;;;;;;;11.68;8.45;;;;;;;11.37;78.97;99692.72;5047959;28;20455;-68
2021/09/20 02:52:07;;;;;;;11.48;7.28;;;;;;;11.33;79.10;99693.81;5047215;28;20041;-68
2021/09/20 02:54:32;;;;;;;10.18;8.00;;;;;;;11.29;79.09;99692.25;5047728;28;20036;-68
2021/09/20 02:56:58;;;;;;;11.43;8.88;;;;;;;11.24;79.47;99689.03;5048118;28;20484;-68
2021/09/20 02:59:23;;;;;;;10.18;7.72;;;;;;;11.20;79.09;99686.63;5048294;28;20658;-67
2021/09/20 03:01:48;;;;;;;13.48;8.30;;;;;;;11.18;79.06;99692.00;5047845;28;20120;-68
2021/09/20 03:04:14;;;;;;;12.25;7.88;;;;;;;11.11;79.25;99695.91;5030394;28;20127;-67
2021/09/20 03:06:39;;;;;;;10.60;8.52;;;;;;;11.07;79.09;99694.34;5047819;28;20091;-68
2021/09/20 03:09:04;;;;;;;10.55;8.90;;;;;;;11.00;79.44;99698.22;5048239;28;20052;-67
2021/09/20 03:11:30;;;;;;;10.55;6.47;;;;;;;11.00;79.26;99698.22;5047263;28;20037;-68
2021/09/20 03:13:55;;;;;;;9.07;6.90;;;;;;;10.98;79.23;99695.69;5048064;28;20033;-68
2021/09/20 03:16:20;;;;;;;8.13;6.45;;;;;;;10.96;78.98;99701.03;5048241;28;20041;-69
2021/09/20 03:18:46;;;;;;;10.57;7.68;;;;;;;10.95;79.15;99706.38;5046710;28;20679;-68
2021/09/20 03:21:11;;;;;;;8.70;7.63;;;;;;;10.87;78.93;99701.50;5047752;28;20033;-68
2021/09/20 03:23:36;;;;;;;10.18;7.07;;;;;;;10.80;79.47;99705.41;5051695;28;20045;-67
2021/09/20 03:26:02;;;;;;;9.57;6.72;;;;;;;10.78;79.38;99694.09;5051647;28;20520;-68
2021/09/20 03:28:27;;;;;;;9.80;7.40;;;;;;;10.71;79.32;99709.38;5052061;28;20037;-68
2021/09/20 03:30:52;;;;;;;9.98;7.70;;;;;;;10.64;79.74;99707.97;5053428;28;20051;-69
2021/09/20 03:33:18;;;;;;;8.95;6.90;;;;;;;10.61;79.88;99708.13;5058243;28;20084;-69
2021/09/20 03:35:43;;;;;;;8.52;6.80;;;;;;;10.63;79.53;99708.91;5060040;28;20111;-69
2021/09/20 03:38:08;;;;;;;8.68;7.07;;;;;;;10.62;79.76;99709.84;5058062;28;20071;-69
2021/09/20 03:40:34;;;;;;;10.57;7.93;;;;;;;10.63;79.36;99714.19;5061415;28;20055;-68
2021/09/20 03:42:59;;;;;;;9.77;7.13;;;;;;;10.59;78.90;99710.00;5053991;28;20086;-69
2021/09/20 03:45:24;;;;;;;8.80;6.47;;;;;;;10.52;79.29;99717.34;5054960;28;20048;-68
2021/09/20 03:47:50;;;;;;;9.20;7.68;;;;;;;10.50;79.00;99728.91;5053288;28;20053;-69
2021/09/20 03:50:15;;;;;;;9.35;7.13;;;;;;;10.42;79.60;99718.75;5052205;28;20509;-69
2021/09/20 03:52:43;;;;;;;10.63;8.00;;;;;;;10.37;79.47;99717.28;5050299;28;20492;-68
2021/09/20 03:55:10;;;;;;;8.52;6.57;;;;;;;10.30;79.45;99725.47;5051030;28;20029;-69
2021/09/20 03:57:36;;;;;;;10.07;8.38;;;;;;;10.24;79.68;99722.25;5049548;28;20447;-68
2021/09/20 04:00:01;;;;;;;11.07;8.18;;;;;;;10.21;79.86;99715.34;5050849;28;20033;-68
2021/09/20 04:02:27;;;;;;;8.30;6.43;;;;;;;10.24;80.27;99724.91;5049773;28;20037;-68
2021/09/20 04:04:52;;;;;;;9.23;7.80;;;;;;;10.20;79.67;99718.06;5050752;28;20037;-68
2021/09/20 04:07:17;;;;;;;8.55;7.00;;;;;;;10.16;80.38;99729.66;5050607;28;20764;-68
2021/09/20 04:09:43;;;;;;;11.23;7.70;;;;;;;10.14;79.87;99723.63;5050622;28;20044;-68
2021/09/20 04:12:09;;;;;;;9.55;7.57;;;;;;;10.16;80.33;99722.63;5049634;28;20037;-68
2021/09/20 04:14:37;;;;;;;8.48;6.22;;;;;;;10.18;79.77;99723.41;5050711;28;20036;-69
2021/09/20 04:17:02;;;;;;;8.30;6.38;;;;;;;10.19;79.98;99727.75;5050217;28;20029;-68
2021/09/20 04:19:28;;;;;;;7.82;6.18;;;;;;;10.18;79.65;99720.75;5050771;28;20089;-69
2021/09/20 04:21:53;;;;;;;8.73;6.25;;;;;;;10.19;79.73;99726.88;5049961;28;20037;-69
2021/09/20 04:24:18;;;;;;;8.90;6.38;;;;;;;10.17;79.53;99721.69;5050025;28;20029;-69
2021/09/20 04:26:43;;;;;;;9.27;6.95;;;;;;;10.16;79.23;99721.75;5050807;28;20045;-69
2021/09/20 04:29:09;;;;;;;8.50;6.25;;;;;;;10.15;79.43;99720.91;5050397;28;20029;-69
2021/09/20 04:31:34;;;;;;;12.02;6.53;;;;;;;10.13;79.79;99725.41;5049608;28;20041;-69
2021/09/20 04:34:00;;;;;;;13.32;6.32;;;;;;;10.13;79.22;99727.19;5050371;28;20067;-69
2021/09/20 04:36:25;;;;;;;10.82;7.00;;;;;;;10.06;79.78;99726.63;5050502;28;20377;-69
2021/09/20 04:38:50;;;;;;;9.65;7.50;;;;;;;10.07;80.07;99730.97;5051179;28;20036;-69
2021/09/20 04:41:16;;;;;;;9.20;6.68;;;;;;;10.05;79.54;99735.47;5048786;28;20064;-69
2021/09/20 04:43:41;;;;;;;11.90;7.50;;;;;;;10.00;79.57;99730.41;5056319;28;20068;-70
2021/09/20 04:46:06;;;;;;;7.72;5.78;;;;;;;9.99;79.77;99731.34;5054951;28;20038;-70
2021/09/20 04:48:32;;;;;;;10.15;7.38;;;;;;;10.00;79.78;99727.78;5052062;28;20044;-69
2021/09/20 04:50:57;;;;;;;8.27;6.57;;;;;;;10.03;79.74;99735.53;5054179;28;20033;-69
2021/09/20 04:53:23;;;;;;;9.02;6.43;;;;;;;10.03;79.23;99734.69;5054297;28;20057;-69
2021/09/20 04:55:49;;;;;;;8.77;6.45;;;;;;;9.99;79.64;99738.38;5054766;28;20036;-69
2021/09/20 04:58:14;;;;;;;7.85;5.90;;;;;;;9.98;79.47;99734.91;5053389;28;20426;-69
2021/09/20 05:00:41;;;;;;;8.57;6.28;;;;;;;9.98;79.60;99742.78;5040119;28;20116;-69
2021/09/20 05:03:06;;;;;;;8.70;6.32;;;;;;;9.97;79.54;99740.22;5047602;28;20025;-69
2021/09/20 05:05:32;;;;;;;10.45;8.25;;;;;;;9.95;79.34;99753.47;5053692;28;20396;-69
2021/09/20 05:07:57;;;;;;;10.55;6.47;;;;;;;9.94;79.37;99746.50;5052872;28;20052;-69
2021/09/20 05:10:23;;;;;;;11.52;6.22;;;;;;;9.94;79.05;99738.59;5052259;28;20033;-69
2021/09/20 05:12:48;;;;;;;9.02;6.53;;;;;;;9.93;79.35;99744.78;5050571;28;20439;-70
2021/09/20 05:15:15;;;;;;;10.55;6.60;;;;;;;9.90;79.09;99750.22;5050607;28;20109;-69
2021/09/20 05:17:41;;;;;;;7.47;6.03;;;;;;;9.88;79.02;99754.69;5049454;28;20043;-69
2021/09/20 05:20:08;;;;;;;10.15;6.68;;;;;;;9.86;79.16;99756.53;5047661;28;20033;-69
2021/09/20 05:22:33;;;;;;;8.80;6.68;;;;;;;9.84;79.56;99758.38;5048711;28;20048;-69
2021/09/20 05:24:59;;;;;;;8.10;5.72;;;;;;;9.88;79.47;99754.69;5047235;28;20420;-69
2021/09/20 05:27:26;;;;;;;10.55;7.55;;;;;;;9.87;79.18;99761.75;5049395;28;20064;-69
2021/09/20 05:29:51;;;;;;;10.70;7.25;;;;;;;9.80;79.44;99764.75;5049324;28;20397;-69
2021/09/20 05:32:17;;;;;;;7.90;6.07;;;;;;;9.75;80.04;99767.59;5048204;28;20045;-69
2021/09/20 05:34:42;;;;;;;10.45;7.35;;;;;;;9.74;80.33;99771.13;5049062;28;20400;-70
2021/09/20 05:37:07;;;;;;;12.35;7.55;;;;;;;9.82;79.59;99768.13;5048453;28;20349;-69
2021/09/20 05:39:33;;;;;;;11.48;7.72;;;;;;;9.85;78.94;99768.00;5049009;28;20572;-69
2021/09/20 05:41:59;;;;;;;10.98;6.88;;;;;;;9.88;79.32;99771.34;5047982;28;20037;-69
2021/09/20 05:44:25;;;;;;;9.75;7.32;;;;;;;9.87;79.76;99766.16;5048422;28;20044;-68
2021/09/20 05:46:50;;;;;;;12.98;7.93;;;;;;;9.86;79.70;99767.06;5049338;28;20165;-68
2021/09/20 05:49:16;;;;;;;15.77;7.57;;;;;;;9.82;79.16;99769.00;5048872;28;20033;-69
2021/09/20 05:51:41;;;;;;;10.20;6.53;;;;;;;9.83;79.48;99767.22;5048225;28;20041;-69
2021/09/20 05:54:08;;;;;;;10.15;6.65;;;;;;;9.87;79.28;99771.44;5046841;28;20033;-69
2021/09/20 05:56:34;;;;;;;9.00;6.45;;;;;;;9.93;79.24;99776.41;5048263;28;20041;-69
2021/09/20 05:58:59;;;;;;;8.50;5.82;;;;;;;9.95;79.06;99785.09;5048650;28;20515;-69
2021/09/20 06:01:24;;;;;;;8.30;6.35;;;;;;;9.97;79.59;99780.59;5046805;28;20043;-70
2021/09/20 06:03:50;;;;;;;8.75;6.25;;;;;;;10.00;79.53;99783.09;5048703;28;20029;-69
2021/09/20 06:06:15;;;;;;;10.75;6.38;;;;;;;10.04;79.59;99787.28;5047264;28;20037;-69
2021/09/20 06:08:40;;;;;;;10.88;6.85;;;;;;;10.10;79.66;99780.88;5048548;28;20604;-68
2021/09/20 06:11:06;;;;;;;14.93;7.38;;;;;;;10.13;79.13;99783.34;5046708;28;20036;-69
2021/09/20 06:13:31;;;;;;;10.52;8.00;;;;;;;10.16;79.03;99792.91;5047003;28;20048;-69
2021/09/20 06:15:56;;;;;;;11.02;8.25;;;;;;;10.19;79.15;99798.00;5048496;28;20040;-69
2021/09/20 06:18:22;;;;;;;15.88;9.52;;;;;;;10.24;79.04;99798.66;5047659;28;20036;-69
2021/09/20 06:20:47;;;;;;;12.15;8.05;;;;;;;10.31;79.37;99795.69;5048623;28;20511;-68
2021/09/20 06:23:13;;;;;;;9.43;7.03;;;;;;;10.40;79.20;99807.56;5047939;28;20413;-68
2021/09/20 06:25:39;;;;;;;8.82;7.28;;;;;;;10.48;79.21;99808.06;5048278;28;20037;-68
2021/09/20 06:28:05;;;;;;;11.02;7.32;;;;;;;10.57;78.87;99806.75;5048313;28;20112;-68
2021/09/20 06:30:30;;;;;;;8.57;6.63;;;;;;;10.70;79.18;99802.56;5047747;28;20128;-68
2021/09/20 06:32:56;;;;;;;8.82;6.88;;;;;;;10.83;79.11;99805.47;5047515;28;20103;-68
2021/09/20 06:35:21;;;;;;;14.30;7.72;;;;;;;10.95;79.19;99807.50;5048214;28;20040;-69
2021/09/20 06:37:46;;;;;;;13.00;8.50;;;;;;;11.08;78.90;99804.22;5047498;28;20484;-69
2021/09/20 06:40:13;;;;;;;10.05;7.60;;;;;;;11.17;79.16;99801.97;5045918;28;20025;-69
2021/09/20 06:42:39;;;;;;;13.45;8.00;;;;;;;11.30;78.83;99806.63;5028257;28;20169;-69
2021/09/20 06:45:06;;;;;;;11.57;7.95;;;;;;;11.39;78.43;99809.63;5028990;28;20115;-68
2021/09/20 06:47:31;;;;;;;12.07;8.35;;;;;;;11.51;78.61;99809.91;5048127;28;20036;-68
2021/09/20 06:49:57;;;;;;;14.43;10.23;;;;;;;11.61;78.08;99804.06;5048653;28;20441;-68
2021/09/20 06:52:22;;;;;;;12.75;8.65;;;;;;;11.72;78.05;99810.56;5048090;28;20042;-68
2021/09/20 06:54:47;;;;;;;15.90;10.63;;;;;;;11.82;77.69;99810.00;5048205;28;20037;-68
2021/09/20 06:57:13;;;;;;;14.85;8.63;;;;;;;11.94;77.52;99808.50;5050188;28;20029;-68
2021/09/20 06:59:38;;;;;;;10.98;8.65;;;;;;;12.04;77.29;99816.78;5050472;28;20056;-69
2021/09/20 07:02:04;;;;;;;13.50;9.45;;;;;;;12.13;77.08;99818.91;5051685;28;20029;-68
2021/09/20 07:04:31;;;;;;;14.02;9.25;;;;;;;12.23;76.85;99813.97;5051892;28;20485;-68
2021/09/20 07:06:57;;;;;;;12.10;9.10;;;;;;;12.32;76.66;99816.09;5051493;28;20037;-68
2021/09/20 07:09:22;;;;;;;12.10;8.45;;;;;;;12.42;75.98;99814.63;5052366;28;20029;-68
2021/09/20 07:11:47;;;;;;;19.10;10.60;;;;;;;12.50;76.26;99822.13;5050876;28;20029;-68
2021/09/20 07:14:13;;;;;;;23.48;11.45;;;;;;;12.55;76.48;99817.47;5049952;28;20080;-68
2021/09/20 07:16:39;;;;;;;19.02;13.18;;;;;;;12.60;75.73;99815.41;5050997;28;20029;-69
2021/09/20 07:19:04;;;;;;;18.40;13.50;;;;;;;12.55;75.81;99817.47;5051899;28;20151;-68
2021/09/20 07:21:30;;;;;;;15.70;10.35;;;;;;;12.52;76.52;99812.31;5050906;28;20029;-68
2021/09/20 07:23:56;;;;;;;21.85;12.02;;;;;;;12.57;76.26;99817.34;5051996;28;20107;-67
2021/09/20 07:26:27;;;;;;;22.20;12.40;;;;;;;12.62;76.00;99817.94;5071347;28;20028;-67
2021/09/20 07:28:53;;;;;;;24.75;14.15;;;;;;;12.70;75.85;99815.72;5071472;28;20050;-68
2021/09/20 07:31:19;;;;;;;14.52;10.77;;;;;;;12.76;75.39;99822.44;5047493;28;20073;-69
2021/09/20 07:33:45;;;;;;;16.15;10.93;;;;;;;12.89;76.00;99826.09;5022131;28;20060;-67
2021/09/20 07:36:10;;;;;;;17.73;11.60;;;;;;;13.01;74.67;99822.72;5051264;28;20037;-67
2021/09/20 07:38:37;;;;;;;16.38;12.18;;;;;;;13.13;74.76;99825.59;5049125;28;20132;-66
2021/09/20 07:41:04;;;;;;;20.15;11.68;;;;;;;13.27;73.98;99820.38;5050619;28;20021;-66
2021/09/20 07:43:29;;;;;;;16.90;12.15;;;;;;;13.43;73.46;99823.78;5050853;28;20033;-67
2021/09/20 07:45:55;;;;;;;24.55;10.30;;;;;;;13.59;72.91;99817.56;5051711;28;20033;-68
2021/09/20 07:48:21;;;;;;;18.00;14.95;;;;;;;13.75;72.66;99829.75;5051033;28;20037;-68
2021/09/20 07:50:46;;;;;;;22.20;11.68;;;;;;;13.83;72.10;99823.13;5050735;28;20037;-67
2021/09/20 07:53:11;;;;;;;19.00;10.57;;;;;;;13.97;71.59;99825.78;5050315;28;20124;-67
2021/09/20 07:55:37;;;;;;;16.55;11.52;;;;;;;14.04;71.52;99823.59;5050736;28;20045;-67
2021/09/20 07:58:08;;;;;;;16.25;11.63;;;;;;;14.26;70.43;99820.44;5051276;28;20037;-67
2021/09/20 08:00:35;;;;;;;12.48;9.50;;;;;;;14.42;70.28;99822.94;5051632;28;20048;-67
2021/09/20 08:03:01;;;;;;;15.88;11.98;;;;;;;14.53;69.55;99820.47;5052171;28;20098;-67
2021/09/20 08:05:27;;;;;;;14.48;10.77;;;;;;;14.57;69.40;99824.63;5052269;28;20049;-68
2021/09/20 08:07:52;;;;;;;17.00;10.77;;;;;;;14.64;69.39;99825.94;5051466;28;20033;-68
2021/09/20 08:10:18;;;;;;;12.18;9.02;;;;;;;14.76;69.09;99825.13;5050630;28;20116;-68
2021/09/20 08:12:43;;;;;;;13.55;9.55;;;;;;;15.00;67.98;99829.78;5049565;28;20511;-68
2021/09/20 08:15:09;;;;;;;13.25;10.02;;;;;;;15.06;67.57;99825.84;5036314;28;20036;-69
2021/09/20 08:17:35;;;;;;;14.85;10.60;;;;;;;15.03;67.71;99837.53;5040748;28;20493;-69
2021/09/20 08:20:02;;;;;;;12.38;9.85;;;;;;;15.09;67.73;99839.78;5044976;28;20102;-69
2021/09/20 08:22:27;;;;;;;12.80;9.80;;;;;;;15.12;67.55;99842.25;5041693;28;20524;-70
2021/09/20 08:24:53;;;;;;;10.90;8.38;;;;;;;15.23;67.15;99839.72;5042875;28;20048;-70
2021/09/20 08:27:18;;;;;;;14.68;9.85;;;;;;;15.39;66.98;99844.81;5044147;28;20037;-70
2021/09/20 08:29:44;;;;;;;19.83;10.38;;;;;;;15.45;65.53;99840.88;5044455;28;20037;-70
2021/09/20 08:32:09;;;;;;;13.40;9.60;;;;;;;15.44;65.96;99842.69;5044037;28;20782;-70
2021/09/20 08:34:36;;;;;;;11.80;8.98;;;;;;;15.48;65.94;99839.81;5046186;28;20036;-69
2021/09/20 08:37:02;;;;;;;14.10;10.15;;;;;;;15.56;65.72;99848.16;5045169;28;20546;-69
2021/09/20 08:39:27;;;;;;;13.30;10.27;;;;;;;15.68;64.71;99850.78;5044702;28;20032;-69
2021/09/20 08:41:52;;;;;;;12.73;9.80;;;;;;;15.59;64.90;99848.78;5044260;28;20064;-69
2021/09/20 08:44:18;;;;;;;11.77;9.05;;;;;;;15.67;64.93;99851.72;5044894;28;20044;-68
2021/09/20 08:46:47;;;;;;;11.90;10.52;;;;;;;15.83;64.24;99851.56;5044393;28;20040;-69
2021/09/20 08:49:14;;;;;;;11.38;9.07;;;;;;;15.92;63.96;99858.03;5044650;28;20407;-68
2021/09/20 08:51:40;;;;;;;12.07;8.70;;;;;;;16.09;62.55;99859.50;5040345;28;20089;-68
2021/09/20 08:54:05;;;;;;;9.75;7.88;;;;;;;16.39;60.90;99860.94;5039376;28;20041;-69
2021/09/20 08:56:31;;;;;;;10.63;8.32;;;;;;;17.16;58.34;99861.50;5037584;28;20045;-69
2021/09/20 08:58:56;;;;;;;10.65;8.10;;;;;;;17.59;56.93;99863.53;5042563;28;20063;-73
2021/09/20 09:01:23;;;;;;;12.55;8.25;;;;;;;17.89;56.49;99867.47;5038202;28;20068;-72
2021/09/20 09:03:48;;;;;;;13.35;8.88;;;;;;;18.92;54.46;99869.91;5043185;28;20036;-74
2021/09/20 09:06:27;;;;;;;11.73;7.53;;;;;;;19.92;51.07;99868.53;5044730;28;20078;-74
2021/09/20 09:08:53;;;;;;;10.95;8.50;;;;;;;20.14;50.09;99874.69;5040940;28;20059;-74
2021/09/20 09:11:18;;;;;;;12.90;9.13;;;;;;;20.71;49.87;99865.16;5042245;28;20044;-73
2021/09/20 09:13:46;;;;;;;11.48;7.55;;;;;;;21.71;46.74;99872.06;5044760;28;20074;-74
2021/09/20 09:16:16;;;;;;;11.05;8.65;;;;;;;22.51;45.29;99865.25;5043799;28;20141;-73
2021/09/20 09:18:58;;;;;;;8.02;7.07;;;;;;;23.43;43.28;99870.53;5043356;28;20509;-73
2021/09/20 09:21:27;;;;;;;9.23;7.82;;;;;;;23.80;41.00;99870.34;5043349;28;20029;-74
2021/09/20 09:24:03;;;;;;;7.13;6.18;;;;;;;24.49;40.28;99873.91;5035628;28;20412;-73
2021/09/20 09:26:29;;;;;;;13.02;8.73;;;;;;;24.81;39.09;99872.31;5039787;28;20050;-73
2021/09/20 09:29:06;;;;;;;10.77;8.23;;;;;;;24.74;39.01;99872.13;5004041;28;20521;-73
2021/09/20 09:31:36;;;;;;;8.73;7.63;;;;;;;24.72;38.79;99873.28;5016310;28;20100;-74
2021/09/20 09:34:15;;;;;;;10.70;8.13;;;;;;;24.61;38.37;99877.97;5017177;28;20088;-73
2021/09/20 09:36:42;;;;;;;7.82;7.05;;;;;;;24.29;39.05;99881.34;5023050;28;20030;-73
2021/09/20 09:39:07;;;;;;;9.02;6.95;;;;;;;24.31;38.80;99882.03;5021593;28;20129;-74
2021/09/20 09:41:33;;;;;;;8.00;6.70;;;;;;;24.06;39.40;99883.75;5022131;28;20504;-73
2021/09/20 09:44:03;;;;;;;8.63;7.45;;;;;;;23.79;40.03;99890.16;5023942;28;20041;-73
2021/09/20 09:46:29;;;;;;;8.90;8.00;;;;;;;23.56;39.95;99892.50;5023057;28;20037;-74
2021/09/20 09:48:54;;;;;;;10.38;7.80;;;;;;;23.70;39.77;99883.88;5022158;28;20474;-74
2021/09/20 09:51:20;;;;;;;9.45;7.45;;;;;;;24.48;39.05;99895.63;5023126;28;20042;-74
2021/09/20 09:53:48;;;;;;;11.65;7.43;;;;;;;24.41;38.33;99892.69;5021503;28;20030;-75
2021/09/20 09:56:13;;;;;;;9.10;7.43;;;;;;;24.83;37.81;99897.22;5022122;28;20041;-74
2021/09/20 09:59:09;;;;;;;9.27;8.10;;;;;;;23.13;40.70;99891.47;5022326;28;20041;-74
2021/09/20 10:01:40;;;;;;;9.57;7.90;;;;;;;23.00;41.77;99891.00;5021776;28;20855;-73
2021/09/20 10:04:10;;;;;;;8.50;7.53;;;;;;;24.31;39.27;99894.66;5021413;28;20041;-74
2021/09/20 10:06:44;;;;;;;18.88;7.57;;;;;;;25.04;37.37;99891.38;5022423;28;20501;-75
2021/09/20 10:09:11;;;;;;;9.02;7.88;;;;;;;24.29;38.30;99899.38;5022742;28;20046;-75
2021/09/20 10:11:39;;;;;;;8.50;7.50;;;;;;;24.56;38.15;99901.03;5021301;28;20412;-73
2021/09/20 10:14:06;;;;;;;10.77;8.20;;;;;;;24.28;38.21;99903.06;5021441;28;20037;-72
2021/09/20 10:16:33;;;;;;;9.40;8.38;;;;;;;24.25;38.88;99900.72;5020696;28;20087;-73
2021/09/20 10:18:59;;;;;;;8.48;7.63;;;;;;;24.77;38.39;99897.91;5023447;28;20724;-74
2021/09/20 10:21:25;;;;;;;9.73;8.32;;;;;;;24.23;38.25;99900.88;5022171;28;20043;-74
2021/09/20 10:23:53;;;;;;;8.77;7.72;;;;;;;24.30;38.92;99893.81;5024093;28;20688;-74
2021/09/20 10:26:19;;;;;;;15.32;8.20;;;;;;;24.54;38.15;99898.50;5022990;28;20041;-73
2021/09/20 10:28:48;;;;;;;11.18;6.47;;;;;;;23.39;40.36;99891.53;5023244;28;20068;-73
2021/09/20 10:31:15;;;;;;;11.00;8.35;;;;;;;22.11;42.25;99902.34;5025522;28;20046;-75
2021/09/20 10:33:40;;;;;;;10.13;8.05;;;;;;;20.87;45.56;99912.00;5026222;28;20103;-72
2021/09/20 10:36:06;;;;;;;10.82;7.90;;;;;;;20.42;46.56;99912.41;5027873;28;20474;-72
2021/09/20 10:38:32;;;;;;;13.52;7.47;;;;;;;21.14;44.97;99908.63;5026845;28;20033;-72
2021/09/20 10:41:21;;;;;;;9.88;7.75;;;;;;;20.51;46.60;99916.97;5027454;28;20549;-75
2021/09/20 10:43:54;;;;;;;10.63;7.75;;;;;;;20.32;46.68;99915.91;5026210;28;20037;-73
2021/09/20 10:46:21;;;;;;;8.32;6.53;;;;;;;20.41;47.10;99914.25;5026093;28;20118;-73
2021/09/20 10:48:54;;;;;;;8.40;5.95;;;;;;;20.72;46.16;99915.09;5026358;28;20046;-73
2021/09/20 10:51:35;;;;;;;9.68;7.63;;;;;;;20.86;45.52;99919.19;5025314;28;20124;-74
2021/09/20 10:54:09;;;;;;;9.73;8.05;;;;;;;20.55;47.02;99915.72;5026704;28;20448;-74
2021/09/20 10:56:35;;;;;;;10.10;7.85;;;;;;;20.31;47.57;99914.22;5025927;28;20566;-75
2021/09/20 10:59:01;;;;;;;9.07;8.18;;;;;;;20.11;47.39;99910.63;5025678;28;20045;-74
2021/09/20 11:01:29;;;;;;;10.00;7.70;;;;;;;19.82;47.86;99910.44;5026358;28;20045;-75
2021/09/20 11:04:02;;;;;;;11.48;7.32;;;;;;;19.55;47.86;99910.09;5026323;28;20041;-75
2021/09/20 11:06:31;;;;;;;9.80;7.57;;;;;;;19.41;48.66;99914.78;5026058;28;20041;-74
2021/09/20 11:09:02;;;;;;;9.90;8.05;;;;;;;18.99;49.25;99920.03;5026594;28;20033;-76
2021/09/20 11:11:43;;;;;;;16.52;8.15;;;;;;;18.75;49.76;99914.00;5026169;28;20052;-74
2021/09/20 11:14:20;;;;;;;6.57;5.90;;;;;;;18.63;50.25;99914.03;5025351;28;20580;-75
2021/09/20 11:16:57;;;;;;;8.07;6.32;;;;;;;18.80;50.66;99914.50;5026267;28;20042;-74
2021/09/20 11:19:28;;;;;;;11.05;6.93;;;;;;;19.21;49.46;99908.44;5026936;28;20189;-73
2021/09/20 11:22:06;;;;;;;9.70;6.20;;;;;;;19.36;49.71;99916.16;5024744;28;20067;-73
2021/09/20 11:25:03;;;;;;;9.07;6.93;;;;;;;19.18;49.37;99918.53;5028043;28;20114;-74
2021/09/20 11:27:41;;;;;;;9.52;6.85;;;;;;;18.75;50.08;99925.53;5023744;28;20040;-73